GGOV Airport Information

Runway Information
Runway 03 Length 10499 ft width 148 ft
Elevation 129 ft Threshold 0 ft Heading 19
Runway 21 Length 10499 ft Width 148 ft
Elevation 86 ft Threshold 0 ft Heading 199
Airport Frequencies
Type A/G Name A/G VOICE Frequency 343.2 MHZ
Type APP Name APP Frequency 123.9 MHZ
Type TWR Name TWR Frequency 124.3 MHZ
Airport Navaids
Type VOR-DME Name Bissau/Oswaldo Vieira Frequency 114300 KHZ
Type NDB Name Bissau/Oswaldo Vieira Frequency 325 KHZ
Airport Weather Information & NOTAM
ADDS - METARS form results

(0444 UTC 15 November 2018)
Data provider http://aviationweather.gov/metar/data/
 
Forecast for: GGOV (BISSAU (CIV/MIL), GW)
Text: TAF GGOV 142300Z 1500/1524 30006KT 8000 NSC
Forecast period: 0000 UTC 15 November 2018 to 0000 UTC 16 November 2018
Forecast type: FROM: standard forecast or significant change
Winds: from the WNW (300 degrees) at 7 MPH (6 knots; 3.1 m/s)
Visibility: 5 miles (8 km)
Ceiling: unknown
Clouds: missing
Weather: no significant weather forecast for this period
Text: PROB30
Forecast period: 0500 to 0800 UTC 15 November 2018
Forecast type: TEMPORARY: The following changes expected for less than half the time period
Visibility: 1.24 miles (2.00 km)
Ceiling: unknown
Clouds: missing
Weather: BR  (mist)